Time;durP1;ratioP1;P1;durP2;ratioP2;P2;SDS_P1;SDS_P2;PMS_P1;PMS_P2;Temp;Humidity;BMP_temperature;BMP_pressure;BME280_temperature;BME280_humidity;BME280_pressure;Samples;Min_cycle;Max_cycle;Signal;HPM_P1;HPM_P2
2022/05/24 00:00:48;;;;;;;4.03;1.52;;;;;;;8.56;100.00;99979.88;4982949;28;20023;-80
2022/05/24 00:03:14;;;;;;;4.88;2.08;;;;;;;8.59;100.00;99983.00;4998316;28;20045;-80
2022/05/24 00:05:40;;;;;;;7.70;1.60;;;;;;;8.62;100.00;99984.50;4995075;28;20022;-79
2022/05/24 00:08:07;;;;;;;2.10;1.20;;;;;;;8.57;100.00;99962.78;5003194;28;20144;-80
2022/05/24 00:10:34;;;;;;;5.20;1.30;;;;;;;8.73;100.00;99985.91;4997705;28;20033;-80
2022/05/24 00:13:06;;;;;;;5.22;1.50;;;;;;;8.74;100.00;99993.75;5017394;28;20128;-79
2022/05/24 00:15:32;;;;;;;4.47;1.60;;;;;;;8.73;100.00;99984.06;5021907;28;20527;-78
2022/05/24 00:18:06;;;;;;;2.80;1.35;;;;;;;8.73;100.00;99985.91;5022243;28;20046;-79
2022/05/24 00:20:38;;;;;;;2.45;1.58;;;;;;;8.74;100.00;99988.41;5043633;28;20040;-78
2022/05/24 00:23:04;;;;;;;1.92;1.35;;;;;;;8.67;100.00;99976.75;5015440;28;20048;-79
2022/05/24 00:25:32;;;;;;;7.05;2.13;;;;;;;8.84;100.00;99992.66;5012319;28;20030;-79
2022/05/24 00:27:58;;;;;;;7.00;2.55;;;;;;;8.87;100.00;99985.09;5012679;28;20091;-79
2022/05/24 00:30:29;;;;;;;15.35;3.97;;;;;;;8.94;100.00;99993.22;4984863;28;20113;-80
2022/05/24 00:32:57;;;;;;;6.88;1.65;;;;;;;8.98;100.00;99991.84;4978589;28;20026;-80
2022/05/24 00:35:23;;;;;;;5.03;1.30;;;;;;;8.98;100.00;99983.81;4987397;28;20507;-80
2022/05/24 00:37:49;;;;;;;6.60;1.50;;;;;;;9.08;100.00;99975.50;4989663;28;20040;-78
2022/05/24 00:40:44;;;;;;;4.70;1.83;;;;;;;9.13;100.00;99991.84;5001788;28;20041;-80
2022/05/24 00:43:59;;;;;;;4.35;1.70;;;;;;;9.03;100.00;99979.56;4981002;28;21517;-79
2022/05/24 00:46:29;;;;;;;3.67;1.00;;;;;;;8.83;100.00;99980.28;4988981;28;20132;-79
2022/05/24 00:49:12;;;;;;;2.75;1.23;;;;;;;8.68;100.00;99978.44;4989459;28;20498;-81
2022/05/24 00:51:43;;;;;;;4.18;1.50;;;;;;;8.55;100.00;99980.91;5028642;28;20037;-81
2022/05/24 00:54:09;;;;;;;3.55;1.63;;;;;;;8.47;100.00;99980.97;4997179;28;20041;-77
2022/05/24 00:56:58;;;;;;;3.63;1.58;;;;;;;8.37;100.00;99979.34;5009815;28;20487;-79
2022/05/24 00:59:45;;;;;;;3.22;2.00;;;;;;;8.32;100.00;99979.03;4988947;28;20053;-84
2022/05/24 01:02:10;;;;;;;4.80;1.90;;;;;;;8.22;100.00;99961.56;4986934;28;20032;-86
2022/05/24 01:04:36;;;;;;;7.47;1.67;;;;;;;8.13;100.00;99963.47;5004245;28;20033;-79
2022/05/24 01:07:02;;;;;;;4.85;2.40;;;;;;;8.06;100.00;99970.53;5006222;28;20054;-78
2022/05/24 01:09:40;;;;;;;4.20;1.88;;;;;;;8.00;100.00;99971.28;5003382;28;20069;-79
2022/05/24 01:12:13;;;;;;;3.20;1.90;;;;;;;7.81;100.00;99954.66;4986222;28;20034;-79
2022/05/24 01:14:39;;;;;;;6.13;3.17;;;;;;;7.63;100.00;99930.03;5002857;28;20105;-82
2022/05/24 01:17:05;;;;;;;4.97;2.55;;;;;;;7.78;100.00;99963.06;4997350;28;20490;-79
2022/05/24 01:19:36;;;;;;;5.93;2.42;;;;;;;7.69;100.00;99972.13;5001443;28;20115;-79
2022/05/24 01:22:33;;;;;;;5.10;2.67;;;;;;;7.55;100.00;99973.72;5002296;28;20029;-78
2022/05/24 01:25:08;;;;;;;4.40;2.03;;;;;;;7.59;100.00;99982.22;4970581;28;20037;-79
2022/05/24 01:27:35;;;;;;;4.97;1.70;;;;;;;7.59;100.00;99976.88;5000135;28;20049;-79
2022/05/24 01:30:03;;;;;;;4.50;1.60;;;;;;;7.59;100.00;99971.50;4988202;28;20474;-81
2022/05/24 01:38:03;;;;;;;4.05;1.67;;;;;;;7.62;100.00;99963.97;5020672;28;20034;-80
2022/05/24 01:40:29;;;;;;;5.57;2.22;;;;;;;7.81;100.00;99976.06;4989009;28;20743;-80
2022/05/24 01:42:55;;;;;;;7.25;3.42;;;;;;;7.84;100.00;99975.72;5001505;28;20033;-78
2022/05/24 01:45:25;;;;;;;3.83;2.08;;;;;;;7.90;100.00;99979.53;4998239;28;20030;-86
2022/05/24 01:47:58;;;;;;;6.35;2.20;;;;;;;7.89;100.00;99975.19;5017624;28;20439;-77
2022/05/24 01:50:25;;;;;;;4.00;1.52;;;;;;;7.84;100.00;99970.38;4974151;28;20038;-78
2022/05/24 01:52:56;;;;;;;6.50;2.03;;;;;;;7.84;100.00;99993.63;4988216;28;20572;-79
2022/05/24 01:55:26;;;;;;;4.93;1.75;;;;;;;7.72;100.00;99983.31;5014392;28;20051;-80
2022/05/24 01:57:54;;;;;;;2.63;1.30;;;;;;;7.62;100.00;99976.50;4998327;28;20037;-77
2022/05/24 02:00:20;;;;;;;6.20;1.55;;;;;;;7.63;100.00;99984.38;5027053;28;20156;-79
2022/05/24 02:02:46;;;;;;;5.13;1.40;;;;;;;7.55;100.00;99987.09;4972214;28;20072;-78
2022/05/24 02:05:13;;;;;;;5.35;1.70;;;;;;;7.36;100.00;99987.53;5007560;28;20030;-78
2022/05/24 02:07:39;;;;;;;4.97;1.40;;;;;;;7.10;100.00;99985.13;5007914;28;20022;-78
2022/05/24 02:10:06;;;;;;;4.15;1.70;;;;;;;6.84;100.00;99986.19;4992883;28;20128;-78
2022/05/24 02:12:44;;;;;;;2.10;1.25;;;;;;;6.58;100.00;99975.69;5016056;28;20030;-78
2022/05/24 02:15:17;;;;;;;3.40;1.50;;;;;;;6.48;100.00;99983.06;5017254;28;20495;-78
2022/05/24 02:17:52;;;;;;;3.90;1.50;;;;;;;6.14;100.00;99958.22;5007668;28;20075;-77
2022/05/24 02:20:22;;;;;;;5.40;1.42;;;;;;;6.20;100.00;99985.25;5017851;28;20065;-78
2022/05/24 02:22:48;;;;;;;6.53;1.80;;;;;;;6.11;100.00;99982.56;5004602;28;20021;-79
2022/05/24 02:25:20;;;;;;;2.88;1.50;;;;;;;6.01;100.00;99981.91;5005915;28;20526;-79
2022/05/24 02:27:47;;;;;;;5.68;1.98;;;;;;;5.90;100.00;99985.69;5009143;28;20092;-79
2022/05/24 02:30:23;;;;;;;9.55;1.48;;;;;;;5.64;100.00;99971.63;4986057;28;20033;-77
2022/05/24 02:32:48;;;;;;;4.65;1.40;;;;;;;5.56;100.00;99977.78;5000659;28;20100;-80
2022/05/24 02:35:14;;;;;;;6.93;1.52;;;;;;;5.51;100.00;99980.09;5017691;28;20026;-79
2022/05/24 02:37:40;;;;;;;3.42;1.60;;;;;;;5.48;100.00;99978.59;5003111;28;20065;-79
2022/05/24 02:42:52;;;;;;;3.97;1.63;;;;;;;5.31;100.00;99984.03;5002508;28;20036;-78
2022/05/24 02:45:17;;;;;;;3.20;1.60;;;;;;;5.15;100.00;99968.78;5002259;28;20041;-78
2022/05/24 02:47:43;;;;;;;6.55;1.70;;;;;;;5.07;100.00;99980.25;5020403;28;20037;-81
2022/05/24 02:50:11;;;;;;;3.22;1.27;;;;;;;5.06;100.00;99983.91;4968602;28;20463;-79
2022/05/24 02:52:37;;;;;;;3.13;1.42;;;;;;;4.90;100.00;99960.69;4995855;28;20368;-80
2022/05/24 02:55:10;;;;;;;2.33;1.33;;;;;;;4.91;100.00;99978.34;4973470;28;20049;-80
2022/05/24 02:57:37;;;;;;;2.33;1.20;;;;;;;4.90;100.00;99984.66;5006044;28;20054;-78
2022/05/24 03:00:10;;;;;;;4.32;1.55;;;;;;;4.99;100.00;99990.88;4995765;28;20491;-79
2022/05/24 03:02:35;;;;;;;4.17;1.43;;;;;;;5.04;100.00;99988.56;5008473;28;20021;-78
2022/05/24 03:05:03;;;;;;;4.95;1.85;;;;;;;5.10;100.00;99987.91;5021945;28;20152;-80
2022/05/24 03:10:15;;;;;;;2.70;1.35;;;;;;;5.31;100.00;100006.16;5009742;28;20022;-79
2022/05/24 03:15:25;;;;;;;2.95;1.67;;;;;;;5.80;100.00;99994.84;4985006;28;20034;-78
2022/05/24 03:17:50;;;;;;;6.78;1.73;;;;;;;5.88;100.00;99986.84;5002900;28;20048;-78
2022/05/24 03:20:16;;;;;;;6.88;1.58;;;;;;;5.91;100.00;99992.69;4971294;28;20491;-80
2022/05/24 03:22:42;;;;;;;6.70;1.75;;;;;;;5.89;100.00;99984.00;4988667;28;20100;-79
2022/05/24 03:25:08;;;;;;;3.53;1.65;;;;;;;5.88;100.00;100002.88;5001743;28;20157;-79
2022/05/24 03:27:34;;;;;;;3.35;1.63;;;;;;;5.77;100.00;99985.34;5004646;28;20041;-78
2022/05/24 03:29:59;;;;;;;5.43;1.80;;;;;;;5.84;100.00;100001.50;5002272;28;20030;-79
2022/05/24 03:32:25;;;;;;;4.10;1.42;;;;;;;5.87;100.00;100003.84;5002873;28;20030;-81
2022/05/24 03:34:51;;;;;;;5.30;1.60;;;;;;;5.94;100.00;99999.56;4984646;28;20040;-81
2022/05/24 03:37:16;;;;;;;4.70;1.92;;;;;;;5.97;100.00;100003.72;4985408;28;20034;-77
2022/05/24 03:39:42;;;;;;;7.57;1.95;;;;;;;5.96;100.00;100005.56;4997817;28;20037;-79
2022/05/24 03:42:08;;;;;;;3.38;1.42;;;;;;;5.98;100.00;100002.72;5013891;28;20392;-78
2022/05/24 03:44:33;;;;;;;4.00;1.25;;;;;;;5.94;100.00;100002.22;5014774;28;20053;-78
2022/05/24 03:46:59;;;;;;;12.25;1.98;;;;;;;6.01;100.00;100016.59;5014897;28;20461;-83
2022/05/24 03:49:25;;;;;;;8.27;1.88;;;;;;;6.14;100.00;100002.78;4983842;28;20061;-81
2022/05/24 03:51:50;;;;;;;3.72;1.80;;;;;;;6.16;100.00;100004.25;5003420;28;20037;-80
2022/05/24 03:54:16;;;;;;;5.57;2.10;;;;;;;6.05;100.00;99987.72;5007671;28;20403;-79
2022/05/24 03:57:59;;;;;;;4.43;1.67;;;;;;;6.26;100.00;100005.94;5001447;28;20387;-79
2022/05/24 03:59:28;;;;;;;4.85;1.90;;;;;;;6.30;100.00;100007.28;5015012;28;20488;-81
2022/05/24 04:01:54;;;;;;;6.80;1.90;;;;;;;6.36;100.00;100011.94;5020735;28;20935;-79
2022/05/24 04:04:20;;;;;;;6.13;1.92;;;;;;;6.44;100.00;100011.94;5004862;28;20029;-79
2022/05/24 04:06:46;;;;;;;5.95;1.98;;;;;;;6.51;100.00;100010.28;4986680;28;20455;-80
2022/05/24 04:09:11;;;;;;;4.85;2.17;;;;;;;6.48;100.00;99993.72;4986329;28;20036;-80
2022/05/24 04:11:37;;;;;;;3.72;2.08;;;;;;;6.60;100.00;100013.78;4986058;28;20029;-80
2022/05/24 04:14:03;;;;;;;5.10;2.25;;;;;;;6.59;100.00;100018.28;5007986;28;20103;-80
2022/05/24 04:16:29;;;;;;;3.65;1.83;;;;;;;6.55;100.00;100013.44;5004716;28;20112;-79
2022/05/24 04:18:55;;;;;;;9.93;2.00;;;;;;;6.52;100.00;100017.28;5001992;28;20124;-78
2022/05/24 04:21:20;;;;;;;3.63;1.92;;;;;;;6.49;100.00;100022.97;5010720;28;20053;-84
2022/05/24 04:23:46;;;;;;;4.47;2.00;;;;;;;6.50;100.00;100019.28;5001730;28;20046;-79
2022/05/24 04:26:11;;;;;;;4.93;2.13;;;;;;;6.52;100.00;100030.63;4985287;28;20036;-78
2022/05/24 04:28:37;;;;;;;5.45;2.38;;;;;;;6.47;100.00;100008.09;4987574;28;20511;-78
2022/05/24 04:31:04;;;;;;;4.53;1.52;;;;;;;6.64;100.00;100035.63;4999143;28;20045;-80
2022/05/24 04:33:29;;;;;;;4.65;2.42;;;;;;;6.71;100.00;100040.13;5026564;28;20463;-78
2022/05/24 04:35:56;;;;;;;4.22;1.70;;;;;;;6.66;100.00;100018.44;5022903;28;20038;-80
2022/05/24 04:38:23;;;;;;;4.35;1.90;;;;;;;6.85;100.00;100041.28;5020799;28;20314;-78
2022/05/24 04:43:36;;;;;;;9.82;2.25;;;;;;;6.86;100.00;100034.94;5015212;28;20053;-81
2022/05/24 04:46:02;;;;;;;4.72;1.90;;;;;;;6.81;100.00;100043.47;5017595;28;20242;-82
2022/05/24 04:48:28;;;;;;;5.45;2.00;;;;;;;6.79;100.00;100048.13;5020907;28;20029;-80
2022/05/24 04:50:56;;;;;;;5.85;1.98;;;;;;;6.91;100.00;100059.34;5002218;28;20100;-79
2022/05/24 04:53:22;;;;;;;5.47;2.17;;;;;;;6.98;100.00;100048.78;5017445;28;20057;-80
2022/05/24 04:55:49;;;;;;;2.97;1.77;;;;;;;7.06;100.00;100056.78;4995671;28;20027;-78
2022/05/24 04:58:17;;;;;;;5.88;1.80;;;;;;;7.10;100.00;100060.78;4999545;28;20045;-81
2022/05/24 05:00:43;;;;;;;4.85;1.98;;;;;;;7.19;100.00;100064.28;4985115;28;20080;-79
2022/05/24 05:03:11;;;;;;;8.07;1.75;;;;;;;7.11;100.00;100042.91;4999128;28;20026;-80
2022/05/24 05:05:37;;;;;;;5.78;1.88;;;;;;;7.35;100.00;100072.25;5007026;28;20061;-79
2022/05/24 05:08:04;;;;;;;3.88;1.98;;;;;;;7.42;100.00;100075.09;4989492;28;20048;-80
2022/05/24 05:10:34;;;;;;;3.75;1.92;;;;;;;7.48;100.00;100069.03;4988575;28;20037;-80
2022/05/24 05:13:03;;;;;;;8.05;2.22;;;;;;;7.57;100.00;100069.84;5007196;28;20052;-80
2022/05/24 05:15:29;;;;;;;8.10;2.22;;;;;;;7.65;100.00;100078.69;5005338;28;20038;-80
2022/05/24 05:18:12;;;;;;;4.65;1.98;;;;;;;7.72;100.00;100084.16;4973575;28;20037;-79
2022/05/24 05:20:39;;;;;;;8.85;2.70;;;;;;;7.78;100.00;100088.84;5011826;28;20328;-79
2022/05/24 05:23:10;;;;;;;8.15;2.10;;;;;;;7.78;100.00;100087.97;4986484;28;20042;-81
2022/05/24 05:25:37;;;;;;;6.60;2.30;;;;;;;7.83;100.00;100091.81;5002854;28;20034;-79
2022/05/24 05:28:03;;;;;;;6.85;2.30;;;;;;;7.87;100.00;100093.13;4993241;28;20061;-81
2022/05/24 05:33:14;;;;;;;11.63;2.90;;;;;;;7.98;100.00;100089.22;4998455;28;20034;-82
2022/05/24 05:35:42;;;;;;;8.10;3.35;;;;;;;8.00;100.00;100103.28;4988568;28;20033;-78
2022/05/24 05:38:08;;;;;;;7.60;2.10;;;;;;;7.96;100.00;100096.59;5004415;28;20025;-80
2022/05/24 05:40:34;;;;;;;6.30;1.90;;;;;;;7.98;100.00;100096.44;5013755;28;20029;-80
2022/05/24 05:42:59;;;;;;;3.70;1.65;;;;;;;7.92;100.00;100104.16;4984071;28;20031;-78
2022/05/24 05:45:25;;;;;;;5.13;1.63;;;;;;;7.82;100.00;100098.16;4997468;28;20053;-80
2022/05/24 05:47:53;;;;;;;6.40;1.90;;;;;;;7.93;100.00;100107.66;5000229;28;20037;-79
2022/05/24 05:50:23;;;;;;;4.18;1.90;;;;;;;7.85;100.00;100113.88;5001954;28;20140;-79
2022/05/24 05:52:50;;;;;;;4.05;1.60;;;;;;;7.85;100.00;100119.22;4968098;28;20486;-79
2022/05/24 05:55:16;;;;;;;4.50;2.10;;;;;;;7.96;100.00;100115.34;4987070;28;20132;-79
2022/05/24 05:57:41;;;;;;;7.80;2.05;;;;;;;8.13;100.00;100111.56;4998175;28;20037;-82
2022/05/24 06:00:11;;;;;;;3.72;2.05;;;;;;;8.36;100.00;100116.13;4993779;28;20057;-80
2022/05/24 06:02:37;;;;;;;4.80;1.70;;;;;;;8.55;100.00;100113.03;4999438;28;20456;-81
2022/05/24 06:05:06;;;;;;;6.50;1.90;;;;;;;8.64;100.00;100123.69;5007316;28;20582;-84
2022/05/24 06:07:32;;;;;;;5.63;1.60;;;;;;;8.81;100.00;100117.16;5018537;28;20038;-82
2022/05/24 06:09:58;;;;;;;9.88;3.78;;;;;;;9.09;100.00;100120.13;5000956;28;20025;-80
2022/05/24 06:12:24;;;;;;;7.68;2.30;;;;;;;9.73;100.00;100126.84;5003435;28;20034;-82
2022/05/24 06:14:51;;;;;;;9.25;3.42;;;;;;;11.85;100.00;100126.16;4988916;28;20522;-80
2022/05/24 06:17:17;;;;;;;5.70;1.83;;;;;;;13.55;90.50;100120.69;4999691;28;22031;-78
2022/05/24 06:19:44;;;;;;;3.47;1.70;;;;;;;14.51;84.53;100109.88;5000798;28;20054;-79
2022/05/24 06:22:10;;;;;;;4.38;1.70;;;;;;;15.27;79.66;100120.78;4999665;28;20065;-81
2022/05/24 06:24:37;;;;;;;3.05;1.80;;;;;;;15.38;79.86;100115.47;4999988;28;20579;-78
2022/05/24 06:27:06;;;;;;;7.00;1.70;;;;;;;16.31;75.04;100119.03;4995044;28;20026;-78
2022/05/24 06:29:33;;;;;;;2.83;1.40;;;;;;;16.97;71.70;100136.28;4991865;28;20080;-79
2022/05/24 06:32:00;;;;;;;5.53;1.65;;;;;;;17.22;69.67;100103.47;4985808;28;20030;-82
2022/05/24 06:34:25;;;;;;;8.30;1.70;;;;;;;17.01;69.50;100132.03;4990103;28;20049;-78
2022/05/24 06:36:51;;;;;;;4.10;1.40;;;;;;;15.45;73.52;100131.66;5003514;28;20474;-82
2022/05/24 06:39:17;;;;;;;4.03;1.30;;;;;;;14.77;75.99;100140.56;4969316;28;20092;-80
2022/05/24 06:41:42;;;;;;;3.95;1.90;;;;;;;13.29;81.59;100143.16;4982737;28;20033;-79
2022/05/24 06:44:08;;;;;;;4.03;1.50;;;;;;;12.17;86.88;100149.94;5016860;28;20566;-80
2022/05/24 06:46:33;;;;;;;6.22;2.15;;;;;;;11.38;91.66;100153.84;5000898;28;20028;-80
2022/05/24 06:48:59;;;;;;;5.78;1.80;;;;;;;13.67;84.38;100148.69;4984819;28;20033;-81
2022/05/24 06:51:25;;;;;;;4.82;1.70;;;;;;;15.43;78.26;100163.59;5015365;28;20028;-79
2022/05/24 06:53:51;;;;;;;2.47;1.58;;;;;;;17.06;70.15;100162.03;4987950;28;20033;-78
2022/05/24 06:56:17;;;;;;;3.22;1.67;;;;;;;18.06;65.75;100159.47;4984894;28;20399;-81
2022/05/24 06:58:43;;;;;;;2.22;1.30;;;;;;;19.21;62.60;100168.47;4983610;28;20044;-79
2022/05/24 07:03:56;;;;;;;4.60;1.30;;;;;;;17.16;66.59;100172.34;5001938;28;20036;-80
2022/05/24 07:06:22;;;;;;;3.13;1.35;;;;;;;16.59;68.01;100178.16;5001790;28;20395;-79
2022/05/24 07:08:49;;;;;;;5.88;1.40;;;;;;;18.19;63.39;100170.09;4990045;28;20479;-82
2022/05/24 07:11:18;;;;;;;1.75;1.30;;;;;;;19.76;57.13;100171.25;5007645;28;20069;-80
2022/05/24 07:13:47;;;;;;;3.15;1.10;;;;;;;20.99;52.25;100180.13;5007262;28;20030;-79
2022/05/24 07:16:15;;;;;;;2.15;1.33;;;;;;;21.91;48.96;100181.69;5019841;28;20109;-83
2022/05/24 07:18:41;;;;;;;2.63;1.50;;;;;;;22.59;45.15;100186.38;5003162;28;20104;-81
2022/05/24 07:21:06;;;;;;;4.10;1.63;;;;;;;22.98;41.53;100189.50;4990144;28;20060;-79
2022/05/24 07:23:37;;;;;;;2.78;1.40;;;;;;;22.96;42.61;100196.34;5004757;28;20018;-78
2022/05/24 07:26:14;;;;;;;2.15;1.10;;;;;;;23.49;39.53;100192.25;5000873;28;20030;-78
2022/05/24 07:28:40;;;;;;;4.20;1.13;;;;;;;22.10;42.03;100195.75;5020115;28;20038;-79
2022/05/24 07:31:06;;;;;;;1.90;0.73;;;;;;;20.14;42.98;100194.19;5017281;28;20053;-79
2022/05/24 07:33:32;;;;;;;2.22;1.00;;;;;;;19.64;45.58;100197.81;5007830;28;20037;-80
2022/05/24 07:35:57;;;;;;;1.70;0.88;;;;;;;19.27;46.92;100202.94;5003196;28;20045;-79
2022/05/24 07:38:23;;;;;;;2.63;1.13;;;;;;;18.60;46.86;100206.28;5011093;28;20034;-82
2022/05/24 07:46:17;;;;;;;1.35;1.00;;;;;;;17.69;52.45;100209.50;5030817;28;20021;-83
2022/05/24 07:48:43;;;;;;;0.93;0.70;;;;;;;17.03;54.37;100216.81;5022656;28;20030;-80
2022/05/24 07:51:09;;;;;;;1.00;0.80;;;;;;;16.47;54.86;100212.56;5025524;28;20053;-80
2022/05/24 07:53:35;;;;;;;3.13;1.00;;;;;;;16.12;55.95;100202.31;5005342;28;20041;-80
2022/05/24 07:56:02;;;;;;;3.85;0.77;;;;;;;16.26;56.29;100219.28;4999087;28;20041;-79
2022/05/24 07:58:28;;;;;;;2.13;1.02;;;;;;;16.37;58.56;100213.06;5009059;28;20404;-79
2022/05/24 08:00:55;;;;;;;1.15;1.05;;;;;;;17.54;57.58;100226.28;4975548;28;20026;-80
2022/05/24 08:03:21;;;;;;;1.67;0.90;;;;;;;18.64;52.42;100221.91;5019702;28;20494;-79
2022/05/24 08:05:47;;;;;;;1.20;0.95;;;;;;;18.12;52.29;100212.91;5016484;28;22227;-80
2022/05/24 08:08:14;;;;;;;2.78;1.30;;;;;;;20.53;47.74;100206.91;5010810;28;20069;-81
2022/05/24 08:10:39;;;;;;;3.03;1.50;;;;;;;21.59;42.88;100219.22;5006870;28;20464;-80
2022/05/24 08:13:08;;;;;;;2.78;1.05;;;;;;;22.99;41.40;100223.22;5023603;28;20033;-78
2022/05/24 08:15:34;;;;;;;1.65;1.10;;;;;;;24.20;38.99;100209.72;5006115;28;20042;-77
2022/05/24 08:18:00;;;;;;;2.30;1.27;;;;;;;24.90;36.04;100215.22;5002799;28;20030;-80
2022/05/24 08:20:27;;;;;;;5.13;1.25;;;;;;;25.20;35.87;100216.13;5025837;28;20022;-76
2022/05/24 08:22:52;;;;;;;2.70;1.00;;;;;;;25.86;34.48;100218.34;5010365;28;20113;-77
2022/05/24 08:25:18;;;;;;;2.05;1.17;;;;;;;24.81;35.62;100208.66;5003788;28;20116;-78
2022/05/24 08:27:44;;;;;;;1.00;0.85;;;;;;;25.80;34.10;100202.97;4990736;28;20301;-79
2022/05/24 08:30:13;;;;;;;1.40;1.02;;;;;;;24.31;35.10;100194.84;4988342;28;20065;-77
2022/05/24 08:32:39;;;;;;;1.95;1.10;;;;;;;21.98;39.59;100208.81;5008551;28;20030;-79
2022/05/24 08:35:06;;;;;;;1.15;1.05;;;;;;;23.86;35.39;100198.56;5005848;28;20046;-79
2022/05/24 08:37:33;;;;;;;1.02;0.93;;;;;;;24.82;32.44;100207.53;5009170;28;20456;-79
2022/05/24 08:39:59;;;;;;;0.90;0.90;;;;;;;24.60;32.93;100207.13;5018735;28;20072;-78
2022/05/24 08:42:36;;;;;;;1.45;0.98;;;;;;;25.16;31.39;100204.06;5031825;28;20029;-77
2022/05/24 08:50:53;;;;;;;1.65;1.02;;;;;;;27.21;28.05;100207.28;5041595;28;20077;-79
2022/05/24 08:53:29;;;;;;;1.15;1.02;;;;;;;27.94;27.53;100214.84;5031682;28;20112;-81
2022/05/24 08:56:02;;;;;;;;;;;;;;;26.46;30.00;100217.09;5024955;28;20034;-82
2022/05/24 08:58:32;;;;;;;2.75;1.10;;;;;;;24.62;32.52;100215.91;4976380;28;19913;-82
2022/05/24 09:00:58;;;;;;;2.35;1.27;;;;;;;26.27;30.89;100222.56;5006782;28;20054;-83
2022/05/24 09:03:25;;;;;;;2.03;1.05;;;;;;;26.64;30.58;100223.78;5027856;28;20029;-82
2022/05/24 09:06:02;;;;;;;1.52;0.90;;;;;;;26.62;29.61;100217.75;4995315;28;20034;-84
2022/05/24 09:08:36;;;;;;;1.17;1.08;;;;;;;25.15;30.94;100221.66;5003069;28;20040;-86
2022/05/24 09:11:11;;;;;;;1.05;0.70;;;;;;;23.36;32.27;100230.41;5005015;28;20030;-84
2022/05/24 09:13:40;;;;;;;3.47;0.60;;;;;;;21.59;36.22;100219.22;4993500;28;20483;-79
2022/05/24 09:16:12;;;;;;;2.78;0.68;;;;;;;20.11;39.17;100221.13;5011244;28;20032;-82
2022/05/24 09:18:47;;;;;;;1.15;0.80;;;;;;;19.42;41.35;100241.31;5002966;28;20030;-82
2022/05/24 09:21:37;;;;;;;2.85;1.00;;;;;;;21.12;38.93;100237.13;5006832;28;20038;-80
2022/05/24 09:24:24;;;;;;;1.17;1.05;;;;;;;22.76;36.26;100228.09;4984078;28;20035;-80
2022/05/24 09:27:09;;;;;;;2.90;1.17;;;;;;;22.52;35.90;100232.38;4991166;28;20483;-82
2022/05/24 09:30:08;;;;;;;1.38;0.70;;;;;;;22.27;35.72;100230.34;5002884;28;20134;-79
2022/05/24 09:32:38;;;;;;;1.85;1.10;;;;;;;23.11;34.90;100229.28;5006302;28;20072;-81
2022/05/24 09:35:16;;;;;;;1.60;1.27;;;;;;;27.35;29.39;100228.28;5002350;28;20026;-81
2022/05/24 09:38:04;;;;;;;1.42;0.70;;;;;;;25.98;29.38;100208.84;5000259;28;20306;-80
2022/05/24 09:40:47;;;;;;;0.77;0.60;;;;;;;24.09;31.46;100228.16;5008469;28;20260;-84
2022/05/24 09:43:27;;;;;;;2.47;0.77;;;;;;;21.59;37.07;100228.25;5005124;28;20389;-80
2022/05/24 09:46:18;;;;;;;1.83;1.00;;;;;;;21.35;38.52;100229.66;5004586;28;20029;-80
2022/05/24 09:49:06;;;;;;;1.17;0.90;;;;;;;22.96;37.04;100232.81;4990093;28;20072;-82
2022/05/24 09:51:38;;;;;;;1.58;1.00;;;;;;;22.07;36.04;100233.75;5003859;28;20084;-84
2022/05/24 09:54:26;;;;;;;1.45;0.82;;;;;;;20.20;41.70;100238.75;5006284;28;20095;-79
2022/05/24 09:57:04;;;;;;;1.27;0.52;;;;;;;19.08;46.35;100238.59;5011694;28;20037;-83
2022/05/24 09:59:29;;;;;;;2.72;0.88;;;;;;;17.99;48.52;100242.06;5023155;28;20042;-81
2022/05/24 10:01:55;;;;;;;1.95;1.15;;;;;;;21.67;42.45;100232.41;4986605;28;20076;-79
2022/05/24 10:04:27;;;;;;;1.90;0.93;;;;;;;24.82;34.09;100231.47;5005146;28;20056;-79
2022/05/24 10:06:58;;;;;;;1.05;1.00;;;;;;;26.42;31.02;100219.63;5004833;28;20037;-79
2022/05/24 10:09:40;;;;;;;1.40;1.13;;;;;;;27.82;27.42;100231.94;5000802;28;20488;-77
2022/05/24 10:12:26;;;;;;;0.82;0.68;;;;;;;24.09;32.71;100214.44;4981216;28;20050;-76
2022/05/24 10:15:00;;;;;;;1.65;0.70;;;;;;;21.43;36.47;100231.94;5017409;28;20029;-77
2022/05/24 10:17:44;;;;;;;1.52;0.95;;;;;;;22.83;33.68;100241.53;5003360;28;20034;-76
2022/05/24 10:20:21;;;;;;;1.42;0.82;;;;;;;25.23;31.93;100241.13;5000147;28;20034;-77
2022/05/24 10:23:04;;;;;;;1.38;0.80;;;;;;;23.77;34.41;100235.94;4985090;28;20050;-76
2022/05/24 10:25:42;;;;;;;1.27;0.80;;;;;;;22.13;37.07;100240.94;5015989;28;20036;-77
2022/05/24 10:28:19;;;;;;;2.47;0.70;;;;;;;21.14;39.00;100237.66;5004961;28;20041;-75
2022/05/24 10:31:12;;;;;;;1.95;0.90;;;;;;;21.26;39.10;100234.78;5005267;28;20345;-77
2022/05/24 10:40:03;;;;;;;1.98;0.82;;;;;;;25.80;30.02;100246.16;5023597;28;20543;-78
2022/05/24 10:43:06;;;;;;;1.30;0.80;;;;;;;25.20;32.21;100251.91;4999418;28;20048;-76
2022/05/24 10:45:51;;;;;;;2.22;0.88;;;;;;;21.95;42.42;100256.69;5008375;28;20030;-77
2022/05/24 10:48:25;;;;;;;0.60;0.60;;;;;;;19.72;45.27;100268.31;5005459;28;20038;-77
2022/05/24 10:50:58;;;;;;;3.42;1.00;;;;;;;18.51;47.70;100259.47;4998052;28;20033;-76
2022/05/24 10:53:39;;;;;;;1.92;1.20;;;;;;;20.67;44.48;100262.00;5015401;28;20495;-77
2022/05/24 10:56:10;;;;;;;1.98;0.80;;;;;;;22.06;42.19;100254.84;5008777;28;20065;-76
2022/05/24 10:58:38;;;;;;;1.58;0.90;;;;;;;20.04;46.16;100267.72;5007659;28;20035;-76
2022/05/24 11:01:32;;;;;;;2.63;0.80;;;;;;;18.26;51.58;100265.19;4989040;28;20038;-76
2022/05/24 11:04:17;;;;;;;3.20;0.90;;;;;;;17.09;58.48;100270.25;4999650;28;20025;-77
2022/05/24 11:06:58;;;;;;;4.00;0.93;;;;;;;16.49;63.16;100265.53;5011901;28;20025;-80
2022/05/24 11:09:25;;;;;;;2.70;0.90;;;;;;;16.86;64.99;100275.56;4985863;28;20041;-78
2022/05/24 11:12:18;;;;;;;1.95;0.70;;;;;;;16.55;66.59;100285.50;5006413;28;20025;-79
2022/05/24 11:14:53;;;;;;;2.17;0.82;;;;;;;16.49;67.71;100281.00;4970231;28;20188;-80
2022/05/24 11:17:20;;;;;;;1.30;1.17;;;;;;;17.62;66.01;100278.63;5018634;28;20413;-79
2022/05/24 11:19:49;;;;;;;2.28;1.13;;;;;;;20.72;59.04;100273.00;4990724;28;20120;-78
2022/05/24 11:22:28;;;;;;;3.53;1.25;;;;;;;22.36;47.68;100258.88;5014369;28;20022;-78
2022/05/24 11:25:07;;;;;;;2.42;1.40;;;;;;;23.22;45.92;100276.75;5013508;28;20026;-82
2022/05/24 11:27:38;;;;;;;1.83;1.20;;;;;;;24.38;42.22;100270.69;5021298;28;20689;-78
2022/05/24 11:30:13;;;;;;;2.13;0.73;;;;;;;22.29;47.54;100272.81;5022641;28;20116;-79
2022/05/24 11:32:51;;;;;;;2.45;1.48;;;;;;;20.41;49.51;100278.88;5006592;28;20117;-77
2022/05/24 11:35:20;;;;;;;2.13;0.77;;;;;;;19.21;53.08;100264.72;5004436;28;20042;-76
2022/05/24 11:38:08;;;;;;;1.65;0.77;;;;;;;18.78;51.17;100285.13;4987666;28;20026;-79
2022/05/24 11:40:39;;;;;;;2.60;1.00;;;;;;;21.00;45.89;100272.78;5015202;28;20061;-78
2022/05/24 11:43:43;;;;;;;0.88;0.80;;;;;;;23.67;40.34;100289.69;4998351;28;20095;-75
2022/05/24 11:46:49;;;;;;;2.45;1.00;;;;;;;25.07;35.71;100277.28;5020398;28;20033;-78
2022/05/24 11:49:24;;;;;;;1.30;1.05;;;;;;;25.93;34.14;100272.25;4913601;29;20032;-77
2022/05/24 11:51:51;;;;;;;0.93;0.88;;;;;;;26.85;33.78;100268.47;4923353;29;20545;-76
2022/05/24 11:54:29;;;;;;;1.30;1.02;;;;;;;26.14;31.02;100281.13;4974891;28;20053;-77
2022/05/24 11:57:01;;;;;;;1.17;0.98;;;;;;;27.70;29.16;100280.47;5015368;28;20070;-78
2022/05/24 11:59:38;;;;;;;1.42;0.95;;;;;;;28.50;27.78;100276.56;5021876;28;20049;-77
2022/05/24 12:02:19;;;;;;;2.15;1.15;;;;;;;29.21;27.50;100276.97;4999954;28;20092;-76
2022/05/24 12:07:56;;;;;;;1.02;0.85;;;;;;;23.99;34.95;100283.09;5002832;28;20045;-76
2022/05/24 12:10:23;;;;;;;;;;;;;;;23.54;35.39;100290.22;5015997;28;20030;-76
2022/05/24 12:12:53;;;;;;;1.85;0.82;;;;;;;21.94;38.83;100281.63;5019554;28;19917;-78
2022/05/24 12:15:31;;;;;;;1.23;0.70;;;;;;;20.37;41.86;100288.66;5004801;28;20117;-77
2022/05/24 12:17:57;;;;;;;1.95;0.80;;;;;;;19.26;42.91;100289.31;5004496;28;20053;-81
2022/05/24 12:20:33;;;;;;;1.63;0.70;;;;;;;18.74;44.54;100285.84;4990739;28;20076;-80
2022/05/24 12:23:09;;;;;;;1.20;0.70;;;;;;;18.58;46.44;100298.31;5003369;28;20054;-79
2022/05/24 12:25:53;;;;;;;2.75;0.98;;;;;;;18.79;46.39;100291.41;5022080;28;20100;-79